createdAt,value
2019-03-06T00:03:04.984Z,4
2019-03-06T00:08:04.966Z,4
2019-03-06T00:13:04.988Z,4
2019-03-06T00:18:04.949Z,4
2019-03-06T00:23:05.004Z,4
2019-03-06T00:28:04.976Z,3
2019-03-06T00:33:04.962Z,4
2019-03-06T00:38:04.939Z,4
2019-03-06T00:43:04.927Z,4
2019-03-06T00:48:04.922Z,5
2019-03-06T00:53:04.943Z,3
2019-03-06T00:58:04.944Z,4
2019-03-06T01:03:04.942Z,4
2019-03-06T01:08:04.881Z,3
2019-03-06T01:13:04.908Z,4
2019-03-06T01:18:04.920Z,3
2019-03-06T01:23:04.874Z,3
2019-03-06T01:28:04.894Z,4
2019-03-06T01:33:04.907Z,3
2019-03-06T01:38:04.870Z,3
2019-03-06T01:43:04.885Z,3
2019-03-06T01:48:04.901Z,3
2019-03-06T01:53:04.835Z,3
2019-03-06T01:58:04.895Z,3
2019-03-06T02:03:04.834Z,3
2019-03-06T02:08:04.821Z,4
2019-03-06T02:13:04.877Z,4
2019-03-06T02:18:04.850Z,2
2019-03-06T02:23:04.819Z,4
2019-03-06T02:28:04.807Z,3
2019-03-06T02:33:04.845Z,4
2019-03-06T02:38:04.833Z,5
2019-03-06T02:43:04.786Z,5
2019-03-06T02:48:04.826Z,6
2019-03-06T02:53:04.788Z,6
2019-03-06T02:58:04.850Z,6
2019-03-06T03:03:04.772Z,6
2019-03-06T03:08:04.781Z,7
2019-03-06T03:13:04.738Z,4
2019-03-06T03:18:04.785Z,5
2019-03-06T03:23:04.744Z,3
2019-03-06T03:28:04.750Z,4
2019-03-06T03:33:04.809Z,5
2019-03-06T03:38:04.714Z,3
2019-03-06T03:43:04.732Z,4
2019-03-06T03:48:05.470Z,5
2019-03-06T03:53:05.507Z,3
2019-03-06T03:58:05.477Z,5
2019-03-06T04:03:05.456Z,4
2019-03-06T04:08:05.471Z,4
2019-03-06T04:12:06.313Z,4
2019-03-06T04:17:06.305Z,4
2019-03-06T04:22:08.346Z,4
2019-03-06T04:27:06.319Z,3
2019-03-06T04:32:06.260Z,5
2019-03-06T04:37:06.313Z,5
2019-03-06T04:42:06.318Z,4
2019-03-06T04:47:06.257Z,3
2019-03-06T04:52:06.262Z,4
2019-03-06T04:57:06.294Z,3
2019-03-06T05:02:06.243Z,5
2019-03-06T05:07:06.219Z,5
2019-03-06T05:12:06.285Z,3
2019-03-06T05:17:06.244Z,4
2019-03-06T05:22:06.202Z,4
2019-03-06T05:27:06.176Z,3
2019-03-06T05:32:06.224Z,6
2019-03-06T05:37:06.196Z,8
2019-03-06T05:42:06.254Z,8
2019-03-06T05:47:06.201Z,6
2019-03-06T05:52:06.266Z,8
2019-03-06T05:57:06.169Z,7
2019-03-06T06:02:06.166Z,6
2019-03-06T06:07:06.187Z,6
2019-03-06T06:12:06.181Z,5
2019-03-06T06:17:06.930Z,6
2019-03-06T06:22:07.712Z,7
2019-03-06T06:27:07.715Z,6
2019-03-06T06:32:07.712Z,6
2019-03-06T06:37:07.680Z,5
2019-03-06T06:42:07.686Z,5
2019-03-06T06:47:07.715Z,6
2019-03-06T06:57:07.899Z,4
2019-03-06T07:02:07.917Z,4
2019-03-06T07:07:07.945Z,5
2019-03-06T07:12:07.915Z,5
2019-03-06T07:17:08.671Z,6
2019-03-06T07:22:08.735Z,6
2019-03-06T07:27:08.612Z,5
2019-03-06T07:32:08.623Z,5
2019-03-06T07:37:08.641Z,5
2019-03-06T07:42:08.638Z,5
2019-03-06T07:47:08.634Z,4
2019-03-06T07:52:08.624Z,6
2019-03-06T07:57:08.647Z,6
2019-03-06T08:02:08.597Z,5
2019-03-06T08:07:08.634Z,5
2019-03-06T08:12:08.645Z,5
2019-03-06T08:17:08.573Z,7
2019-03-06T08:22:08.580Z,5
2019-03-06T08:27:08.561Z,5
2019-03-06T08:32:08.572Z,5
2019-03-06T08:37:08.578Z,5
2019-03-06T08:42:08.614Z,6
2019-03-06T08:47:08.527Z,5
2019-03-06T08:52:08.553Z,5
2019-03-06T08:57:08.562Z,5
2019-03-06T09:02:15.222Z,6
2019-03-06T09:07:08.563Z,6
2019-03-06T09:12:08.540Z,8
2019-03-06T09:17:08.553Z,7
2019-03-06T09:22:08.492Z,7
2019-03-06T09:27:08.520Z,9
2019-03-06T09:32:08.527Z,8
2019-03-06T09:37:08.495Z,7
2019-03-06T09:42:08.498Z,7
2019-03-06T09:47:08.505Z,7
2019-03-06T09:52:08.470Z,6
2019-03-06T09:57:08.520Z,8
2019-03-06T10:02:08.510Z,8
2019-03-06T10:07:08.437Z,8
2019-03-06T10:12:08.541Z,8
2019-03-06T10:17:08.468Z,8
2019-03-06T10:22:08.463Z,8
2019-03-06T10:27:08.438Z,9
2019-03-06T10:32:08.444Z,8
2019-03-06T10:37:08.475Z,8
2019-03-06T10:42:08.453Z,9
2019-03-06T10:47:08.399Z,9
2019-03-06T10:52:08.384Z,9
2019-03-06T10:57:08.429Z,9
2019-03-06T11:02:08.469Z,8
2019-03-06T11:07:08.423Z,9
2019-03-06T11:12:08.415Z,9
2019-03-06T11:17:08.386Z,11
2019-03-06T11:22:08.396Z,10
2019-03-06T11:27:08.368Z,10
2019-03-06T11:32:12.670Z,11
2019-03-06T11:37:08.324Z,9
2019-03-06T11:42:08.384Z,10
2019-03-06T11:47:08.347Z,10
2019-03-06T11:52:08.363Z,10
2019-03-06T11:57:08.323Z,10
2019-03-06T12:02:08.320Z,12
2019-03-06T12:07:08.316Z,12
2019-03-06T12:12:08.283Z,10
2019-03-06T12:17:08.318Z,12
2019-03-06T12:22:08.342Z,12
2019-03-06T12:27:08.309Z,11
2019-03-06T12:32:08.276Z,12
2019-03-06T12:37:09.593Z,11
2019-03-06T12:42:14.127Z,11
2019-03-06T12:47:08.274Z,11
2019-03-06T12:52:08.247Z,9
2019-03-06T12:57:08.300Z,11
2019-03-06T13:02:08.251Z,11
2019-03-06T13:07:08.266Z,10
2019-03-06T13:12:08.255Z,9
2019-03-06T13:17:08.227Z,10
2019-03-06T13:22:10.993Z,10
2019-03-06T13:27:08.246Z,7
2019-03-06T13:32:11.593Z,10
2019-03-06T13:37:08.223Z,10
2019-03-06T13:42:08.252Z,8
2019-03-06T13:47:08.205Z,9
2019-03-06T13:52:08.202Z,9
2019-03-06T13:57:08.211Z,9
2019-03-06T14:02:08.182Z,11
2019-03-06T14:07:08.212Z,10
2019-03-06T14:12:08.252Z,11
2019-03-06T14:17:08.160Z,9
2019-03-06T14:22:08.189Z,9
2019-03-06T14:27:08.141Z,9
2019-03-06T14:32:14.478Z,8
2019-03-06T14:37:08.116Z,10
2019-03-06T14:42:08.168Z,8
2019-03-06T14:47:08.156Z,10
2019-03-06T14:52:08.149Z,10
2019-03-06T14:57:08.133Z,9
2019-03-06T15:02:08.109Z,7
2019-03-06T15:07:08.126Z,9
2019-03-06T15:12:08.136Z,8
2019-03-06T15:17:08.109Z,9
2019-03-06T15:22:08.092Z,8
2019-03-06T15:27:08.104Z,9
2019-03-06T15:32:08.065Z,9
2019-03-06T15:37:08.096Z,9
2019-03-06T15:42:08.080Z,7
2019-03-06T15:47:08.077Z,9
2019-03-06T15:52:08.082Z,9
2019-03-06T15:57:09.929Z,9
2019-03-06T16:02:08.034Z,10
2019-03-06T16:07:08.077Z,8
2019-03-06T16:12:08.056Z,9
2019-03-06T16:17:08.025Z,9
2019-03-06T16:22:08.030Z,8
2019-03-06T16:27:08.063Z,9
2019-03-06T16:32:08.053Z,7
2019-03-06T16:37:08.111Z,9
2019-03-06T16:42:08.021Z,7
2019-03-06T16:47:08.029Z,10
2019-03-06T16:52:07.993Z,8
2019-03-06T16:57:07.985Z,8
2019-03-06T17:02:08.012Z,8
2019-03-06T17:07:07.944Z,7
2019-03-06T17:12:07.944Z,8
2019-03-06T17:17:07.998Z,7
2019-03-06T17:22:07.978Z,8
2019-03-06T17:27:07.926Z,8
2019-03-06T17:32:07.984Z,9
2019-03-06T17:37:07.927Z,8
2019-03-06T17:42:07.914Z,8
2019-03-06T17:47:08.038Z,9
2019-03-06T17:52:07.906Z,8
2019-03-06T17:57:09.154Z,9
2019-03-06T18:02:07.945Z,7
2019-03-06T18:07:07.927Z,8
2019-03-06T18:12:07.887Z,9
2019-03-06T18:17:07.916Z,9
2019-03-06T18:22:07.891Z,7
2019-03-06T18:27:07.902Z,9
2019-03-06T18:32:07.915Z,9
2019-03-06T18:37:07.883Z,8
2019-03-06T18:42:07.828Z,8
2019-03-06T18:47:07.855Z,10
2019-03-06T18:52:07.888Z,9
2019-03-06T18:57:07.825Z,8
2019-03-06T19:02:07.852Z,9
2019-03-06T19:07:07.862Z,9
2019-03-06T19:12:07.846Z,7
2019-03-06T19:17:07.801Z,7
2019-03-06T19:22:07.814Z,9
2019-03-06T19:27:07.818Z,8
2019-03-06T19:32:07.815Z,7
2019-03-06T19:37:07.793Z,7
2019-03-06T19:42:07.809Z,8
2019-03-06T19:47:07.840Z,8
2019-03-06T19:52:07.804Z,8
2019-03-06T19:57:07.782Z,7
2019-03-06T20:02:07.804Z,8
2019-03-06T20:07:25.836Z,7
2019-03-06T20:11:56.726Z,6
2019-03-06T20:16:56.663Z,6
2019-03-06T20:21:56.664Z,6
2019-03-06T20:26:56.676Z,6
2019-03-06T20:31:56.643Z,8
2019-03-06T20:36:56.692Z,7
2019-03-06T20:42:08.785Z,7
2019-03-06T20:46:56.638Z,6
2019-03-06T20:51:56.641Z,7
2019-03-06T20:56:56.619Z,6
2019-03-06T21:01:56.736Z,6
2019-03-06T21:06:56.611Z,5
2019-03-06T21:11:56.625Z,5
2019-03-06T21:16:56.597Z,5
2019-03-06T21:21:56.592Z,6
2019-03-06T21:26:56.621Z,5
2019-03-06T21:31:56.562Z,4
2019-03-06T21:36:56.599Z,6
2019-03-06T21:41:57.347Z,6
2019-03-06T21:46:57.326Z,5
2019-03-06T21:51:57.322Z,6
2019-03-06T21:56:57.346Z,6
2019-03-06T22:01:58.049Z,5
2019-03-06T22:06:58.073Z,5
2019-03-06T22:11:58.119Z,6
2019-03-06T22:16:58.038Z,6
2019-03-06T22:21:58.052Z,5
2019-03-06T22:26:58.019Z,4
2019-03-06T22:31:58.031Z,7
2019-03-06T22:36:58.087Z,7
2019-03-06T22:41:58.008Z,7
2019-03-06T22:46:58.032Z,6
2019-03-06T22:51:58.011Z,6
2019-03-06T22:56:58.850Z,6
2019-03-06T23:01:57.972Z,6
2019-03-06T23:06:57.993Z,8
2019-03-06T23:11:57.991Z,10
2019-03-06T23:16:57.957Z,11
2019-03-06T23:21:59.672Z,12
2019-03-06T23:26:57.932Z,12
2019-03-06T23:31:58.773Z,12
2019-03-06T23:36:58.754Z,12
2019-03-06T23:41:58.682Z,14
2019-03-06T23:46:58.698Z,13
2019-03-06T23:51:58.706Z,11
2019-03-06T23:56:58.682Z,11
